sensor_id;sensor_type;location;lat;lon;timestamp;temperature;humidity
2639;DHT22;1329;51.384;7.122;2022-09-30T00:01:05;9.20;99.90
2639;DHT22;1329;51.384;7.122;2022-09-30T00:03:32;9.10;99.90
2639;DHT22;1329;51.384;7.122;2022-09-30T00:06:00;9.10;99.90
2639;DHT22;1329;51.384;7.122;2022-09-30T00:08:29;9.10;99.90
2639;DHT22;1329;51.384;7.122;2022-09-30T00:11:00;9.10;99.90
2639;DHT22;1329;51.384;7.122;2022-09-30T00:13:29;9.10;99.90
2639;DHT22;1329;51.384;7.122;2022-09-30T00:15:56;9.10;99.90
2639;DHT22;1329;51.384;7.122;2022-09-30T00:18:24;9.10;99.90
2639;DHT22;1329;51.384;7.122;2022-09-30T00:20:51;9.10;99.90
2639;DHT22;1329;51.384;7.122;2022-09-30T00:23:19;9.10;99.90
2639;DHT22;1329;51.384;7.122;2022-09-30T00:25:46;9.00;99.90
2639;DHT22;1329;51.384;7.122;2022-09-30T00:28:14;9.00;99.90
2639;DHT22;1329;51.384;7.122;2022-09-30T00:30:41;9.00;99.90
2639;DHT22;1329;51.384;7.122;2022-09-30T00:33:08;9.00;99.90
2639;DHT22;1329;51.384;7.122;2022-09-30T00:35:37;9.00;99.90
2639;DHT22;1329;51.384;7.122;2022-09-30T00:38:04;9.00;99.90
2639;DHT22;1329;51.384;7.122;2022-09-30T00:40:31;9.00;99.90
2639;DHT22;1329;51.384;7.122;2022-09-30T00:42:59;9.00;99.90
2639;DHT22;1329;51.384;7.122;2022-09-30T00:45:27;9.00;99.90
2639;DHT22;1329;51.384;7.122;2022-09-30T00:47:56;8.90;99.90
2639;DHT22;1329;51.384;7.122;2022-09-30T00:50:34;8.90;99.90
2639;DHT22;1329;51.384;7.122;2022-09-30T00:53:12;8.90;99.90
2639;DHT22;1329;51.384;7.122;2022-09-30T00:55:47;8.90;99.90
2639;DHT22;1329;51.384;7.122;2022-09-30T00:58:21;8.90;99.90
2639;DHT22;1329;51.384;7.122;2022-09-30T01:00:50;8.90;99.90
2639;DHT22;1329;51.384;7.122;2022-09-30T01:03:18;8.90;99.90
2639;DHT22;1329;51.384;7.122;2022-09-30T01:05:49;8.80;99.90
2639;DHT22;1329;51.384;7.122;2022-09-30T01:08:18;8.90;99.90
2639;DHT22;1329;51.384;7.122;2022-09-30T01:10:46;8.80;99.90
2639;DHT22;1329;51.384;7.122;2022-09-30T01:13:14;8.80;99.90
2639;DHT22;1329;51.384;7.122;2022-09-30T01:16:07;8.80;99.90
2639;DHT22;1329;51.384;7.122;2022-09-30T01:19:03;8.80;99.90
2639;DHT22;1329;51.384;7.122;2022-09-30T01:22:06;8.80;99.90
2639;DHT22;1329;51.384;7.122;2022-09-30T01:24:52;8.80;99.90
2639;DHT22;1329;51.384;7.122;2022-09-30T01:27:40;8.80;99.90
2639;DHT22;1329;51.384;7.122;2022-09-30T01:30:16;8.70;99.90
2639;DHT22;1329;51.384;7.122;2022-09-30T01:36:06;8.70;99.90
2639;DHT22;1329;51.384;7.122;2022-09-30T01:38:45;8.70;99.90
2639;DHT22;1329;51.384;7.122;2022-09-30T01:41:24;8.70;99.90
2639;DHT22;1329;51.384;7.122;2022-09-30T01:44:00;8.70;99.90
2639;DHT22;1329;51.384;7.122;2022-09-30T01:46:34;8.60;99.90
2639;DHT22;1329;51.384;7.122;2022-09-30T01:49:15;8.60;99.90
2639;DHT22;1329;51.384;7.122;2022-09-30T01:51:49;8.60;99.90
2639;DHT22;1329;51.384;7.122;2022-09-30T01:54:24;8.60;99.90
2639;DHT22;1329;51.384;7.122;2022-09-30T01:56:56;8.60;99.90
2639;DHT22;1329;51.384;7.122;2022-09-30T01:59:29;8.60;99.90
2639;DHT22;1329;51.384;7.122;2022-09-30T02:02:03;8.60;99.90
2639;DHT22;1329;51.384;7.122;2022-09-30T02:04:37;8.60;99.90
2639;DHT22;1329;51.384;7.122;2022-09-30T02:07:09;8.50;99.90
2639;DHT22;1329;51.384;7.122;2022-09-30T02:09:41;8.60;99.90
2639;DHT22;1329;51.384;7.122;2022-09-30T02:12:17;8.60;99.90
2639;DHT22;1329;51.384;7.122;2022-09-30T02:14:49;8.60;99.90
2639;DHT22;1329;51.384;7.122;2022-09-30T02:17:21;8.60;99.90
2639;DHT22;1329;51.384;7.122;2022-09-30T02:19:54;8.60;99.90
2639;DHT22;1329;51.384;7.122;2022-09-30T02:22:28;8.60;99.90
2639;DHT22;1329;51.384;7.122;2022-09-30T02:24:59;8.60;99.90
2639;DHT22;1329;51.384;7.122;2022-09-30T02:27:31;8.60;99.90
2639;DHT22;1329;51.384;7.122;2022-09-30T02:30:00;8.60;99.90
2639;DHT22;1329;51.384;7.122;2022-09-30T02:32:32;8.60;99.90
2639;DHT22;1329;51.384;7.122;2022-09-30T02:35:05;8.60;99.90
2639;DHT22;1329;51.384;7.122;2022-09-30T02:37:36;8.70;99.90
2639;DHT22;1329;51.384;7.122;2022-09-30T02:40:08;8.70;99.90
2639;DHT22;1329;51.384;7.122;2022-09-30T02:42:38;8.60;99.90
2639;DHT22;1329;51.384;7.122;2022-09-30T02:45:08;8.60;99.90
2639;DHT22;1329;51.384;7.122;2022-09-30T02:47:47;8.60;99.90
2639;DHT22;1329;51.384;7.122;2022-09-30T02:50:29;8.60;99.90
2639;DHT22;1329;51.384;7.122;2022-09-30T02:53:15;8.60;99.90
2639;DHT22;1329;51.384;7.122;2022-09-30T02:58:50;8.60;99.90
2639;DHT22;1329;51.384;7.122;2022-09-30T03:01:18;8.60;99.90
2639;DHT22;1329;51.384;7.122;2022-09-30T03:03:47;8.60;99.90
2639;DHT22;1329;51.384;7.122;2022-09-30T03:06:17;8.60;99.90
2639;DHT22;1329;51.384;7.122;2022-09-30T03:08:45;8.50;99.90
2639;DHT22;1329;51.384;7.122;2022-09-30T03:11:15;8.50;99.90
2639;DHT22;1329;51.384;7.122;2022-09-30T03:14:01;8.50;99.90
2639;DHT22;1329;51.384;7.122;2022-09-30T03:17:09;8.50;99.90
2639;DHT22;1329;51.384;7.122;2022-09-30T03:19:58;8.50;99.90
2639;DHT22;1329;51.384;7.122;2022-09-30T03:22:55;8.50;99.90
2639;DHT22;1329;51.384;7.122;2022-09-30T03:25:41;8.50;99.90
2639;DHT22;1329;51.384;7.122;2022-09-30T03:28:18;8.50;99.90
2639;DHT22;1329;51.384;7.122;2022-09-30T03:30:53;8.50;99.90
2639;DHT22;1329;51.384;7.122;2022-09-30T03:33:28;8.40;99.90
2639;DHT22;1329;51.384;7.122;2022-09-30T03:36:03;8.40;99.90
2639;DHT22;1329;51.384;7.122;2022-09-30T03:38:40;8.40;99.90
2639;DHT22;1329;51.384;7.122;2022-09-30T03:41:18;8.40;99.90
2639;DHT22;1329;51.384;7.122;2022-09-30T03:43:51;8.40;99.90
2639;DHT22;1329;51.384;7.122;2022-09-30T03:46:25;8.30;99.90
2639;DHT22;1329;51.384;7.122;2022-09-30T03:49:03;8.30;99.90
2639;DHT22;1329;51.384;7.122;2022-09-30T03:51:35;8.30;99.90
2639;DHT22;1329;51.384;7.122;2022-09-30T03:54:07;8.30;99.90
2639;DHT22;1329;51.384;7.122;2022-09-30T03:56:35;8.30;99.90
2639;DHT22;1329;51.384;7.122;2022-09-30T03:59:09;8.30;99.90
2639;DHT22;1329;51.384;7.122;2022-09-30T04:01:39;8.30;99.90
2639;DHT22;1329;51.384;7.122;2022-09-30T04:04:07;8.30;99.90
2639;DHT22;1329;51.384;7.122;2022-09-30T04:06:34;8.30;99.90
2639;DHT22;1329;51.384;7.122;2022-09-30T04:09:01;8.30;99.90
2639;DHT22;1329;51.384;7.122;2022-09-30T04:11:29;8.30;99.90
2639;DHT22;1329;51.384;7.122;2022-09-30T04:13:56;8.30;99.90
2639;DHT22;1329;51.384;7.122;2022-09-30T04:16:27;8.30;99.90
2639;DHT22;1329;51.384;7.122;2022-09-30T04:18:54;8.40;99.90
2639;DHT22;1329;51.384;7.122;2022-09-30T04:21:21;8.40;99.90
2639;DHT22;1329;51.384;7.122;2022-09-30T04:23:49;8.40;99.90
2639;DHT22;1329;51.384;7.122;2022-09-30T04:26:17;8.40;99.90
2639;DHT22;1329;51.384;7.122;2022-09-30T04:28:46;8.40;99.90
2639;DHT22;1329;51.384;7.122;2022-09-30T04:31:13;8.40;99.90
2639;DHT22;1329;51.384;7.122;2022-09-30T04:33:42;8.40;99.90
2639;DHT22;1329;51.384;7.122;2022-09-30T04:36:10;8.40;99.90
2639;DHT22;1329;51.384;7.122;2022-09-30T04:38:37;8.40;99.90
2639;DHT22;1329;51.384;7.122;2022-09-30T04:41:05;8.40;99.90
2639;DHT22;1329;51.384;7.122;2022-09-30T04:43:32;8.40;99.90
2639;DHT22;1329;51.384;7.122;2022-09-30T04:46:01;8.40;99.90
2639;DHT22;1329;51.384;7.122;2022-09-30T04:48:28;8.40;99.90
2639;DHT22;1329;51.384;7.122;2022-09-30T04:50:56;8.50;99.90
2639;DHT22;1329;51.384;7.122;2022-09-30T04:53:24;8.50;99.90
2639;DHT22;1329;51.384;7.122;2022-09-30T04:55:57;8.50;99.90
2639;DHT22;1329;51.384;7.122;2022-09-30T04:58:25;8.50;99.90
2639;DHT22;1329;51.384;7.122;2022-09-30T05:01:04;8.50;99.90
2639;DHT22;1329;51.384;7.122;2022-09-30T05:03:32;8.50;99.90
2639;DHT22;1329;51.384;7.122;2022-09-30T05:06:00;8.50;99.90
2639;DHT22;1329;51.384;7.122;2022-09-30T05:08:27;8.50;99.90
2639;DHT22;1329;51.384;7.122;2022-09-30T05:10:55;8.40;99.90
2639;DHT22;1329;51.384;7.122;2022-09-30T05:13:23;8.40;99.90
2639;DHT22;1329;51.384;7.122;2022-09-30T05:15:51;8.40;99.90
2639;DHT22;1329;51.384;7.122;2022-09-30T05:18:20;8.40;99.90
2639;DHT22;1329;51.384;7.122;2022-09-30T05:20:48;8.40;99.90
2639;DHT22;1329;51.384;7.122;2022-09-30T05:23:16;8.40;99.90
2639;DHT22;1329;51.384;7.122;2022-09-30T05:25:46;8.40;99.90
2639;DHT22;1329;51.384;7.122;2022-09-30T05:28:13;8.40;99.90
2639;DHT22;1329;51.384;7.122;2022-09-30T05:30:41;8.40;99.90
2639;DHT22;1329;51.384;7.122;2022-09-30T05:33:08;8.40;99.90
2639;DHT22;1329;51.384;7.122;2022-09-30T05:35:38;8.40;99.90
2639;DHT22;1329;51.384;7.122;2022-09-30T05:38:05;8.40;99.90
2639;DHT22;1329;51.384;7.122;2022-09-30T05:40:36;8.40;99.90
2639;DHT22;1329;51.384;7.122;2022-09-30T05:43:03;8.40;99.90
2639;DHT22;1329;51.384;7.122;2022-09-30T05:45:31;8.40;99.90
2639;DHT22;1329;51.384;7.122;2022-09-30T05:47:58;8.40;99.90
2639;DHT22;1329;51.384;7.122;2022-09-30T05:50:26;8.30;99.90
2639;DHT22;1329;51.384;7.122;2022-09-30T05:52:54;8.30;99.90
2639;DHT22;1329;51.384;7.122;2022-09-30T05:55:22;8.40;99.90
2639;DHT22;1329;51.384;7.122;2022-09-30T05:57:50;8.40;99.90
2639;DHT22;1329;51.384;7.122;2022-09-30T06:00:18;8.30;99.90
2639;DHT22;1329;51.384;7.122;2022-09-30T06:02:50;8.40;99.90
2639;DHT22;1329;51.384;7.122;2022-09-30T06:05:17;8.40;99.90
2639;DHT22;1329;51.384;7.122;2022-09-30T06:07:45;8.40;99.90
2639;DHT22;1329;51.384;7.122;2022-09-30T06:10:13;8.40;99.90
2639;DHT22;1329;51.384;7.122;2022-09-30T06:12:40;8.40;99.90
2639;DHT22;1329;51.384;7.122;2022-09-30T06:15:08;8.40;99.90
2639;DHT22;1329;51.384;7.122;2022-09-30T06:17:35;8.50;99.90
2639;DHT22;1329;51.384;7.122;2022-09-30T06:20:02;8.50;99.90
2639;DHT22;1329;51.384;7.122;2022-09-30T06:22:32;8.50;99.90
2639;DHT22;1329;51.384;7.122;2022-09-30T06:25:01;8.50;99.90
2639;DHT22;1329;51.384;7.122;2022-09-30T06:27:32;8.50;99.90
2639;DHT22;1329;51.384;7.122;2022-09-30T06:29:59;8.50;99.90
2639;DHT22;1329;51.384;7.122;2022-09-30T06:32:27;8.50;99.90
2639;DHT22;1329;51.384;7.122;2022-09-30T06:34:54;8.50;99.90
2639;DHT22;1329;51.384;7.122;2022-09-30T06:37:28;8.50;99.90
2639;DHT22;1329;51.384;7.122;2022-09-30T06:39:55;8.50;99.90
2639;DHT22;1329;51.384;7.122;2022-09-30T06:42:22;8.50;99.90
2639;DHT22;1329;51.384;7.122;2022-09-30T06:44:50;8.60;99.90
2639;DHT22;1329;51.384;7.122;2022-09-30T06:47:17;8.60;99.90
2639;DHT22;1329;51.384;7.122;2022-09-30T06:49:44;8.60;99.90
2639;DHT22;1329;51.384;7.122;2022-09-30T06:52:11;8.70;99.90
2639;DHT22;1329;51.384;7.122;2022-09-30T06:54:38;8.70;99.90
2639;DHT22;1329;51.384;7.122;2022-09-30T06:57:07;8.70;99.90
2639;DHT22;1329;51.384;7.122;2022-09-30T06:59:34;8.80;99.90
2639;DHT22;1329;51.384;7.122;2022-09-30T07:02:03;8.80;99.90
2639;DHT22;1329;51.384;7.122;2022-09-30T07:04:30;8.90;99.90
2639;DHT22;1329;51.384;7.122;2022-09-30T07:06:57;8.90;99.90
2639;DHT22;1329;51.384;7.122;2022-09-30T07:09:23;9.00;99.90
2639;DHT22;1329;51.384;7.122;2022-09-30T07:11:50;9.00;99.90
2639;DHT22;1329;51.384;7.122;2022-09-30T07:14:17;9.10;99.90
2639;DHT22;1329;51.384;7.122;2022-09-30T07:16:46;9.10;99.90
2639;DHT22;1329;51.384;7.122;2022-09-30T07:19:16;9.20;99.90
2639;DHT22;1329;51.384;7.122;2022-09-30T07:21:47;9.20;99.90
2639;DHT22;1329;51.384;7.122;2022-09-30T07:24:15;9.20;99.90
2639;DHT22;1329;51.384;7.122;2022-09-30T07:26:43;9.30;99.90
2639;DHT22;1329;51.384;7.122;2022-09-30T07:29:11;9.30;99.90
2639;DHT22;1329;51.384;7.122;2022-09-30T07:31:40;9.30;99.90
2639;DHT22;1329;51.384;7.122;2022-09-30T07:34:08;9.30;99.90
2639;DHT22;1329;51.384;7.122;2022-09-30T07:36:38;9.40;99.90
2639;DHT22;1329;51.384;7.122;2022-09-30T07:39:08;9.40;99.90
2639;DHT22;1329;51.384;7.122;2022-09-30T07:41:38;9.40;99.90
2639;DHT22;1329;51.384;7.122;2022-09-30T07:44:08;9.40;99.90
2639;DHT22;1329;51.384;7.122;2022-09-30T07:46:40;9.50;99.90
2639;DHT22;1329;51.384;7.122;2022-09-30T07:49:12;9.50;99.90
2639;DHT22;1329;51.384;7.122;2022-09-30T07:51:50;9.50;99.90
2639;DHT22;1329;51.384;7.122;2022-09-30T07:54:21;9.60;99.90
2639;DHT22;1329;51.384;7.122;2022-09-30T07:56:53;9.60;99.90
2639;DHT22;1329;51.384;7.122;2022-09-30T07:59:22;9.60;99.90
2639;DHT22;1329;51.384;7.122;2022-09-30T08:01:50;9.70;99.90
2639;DHT22;1329;51.384;7.122;2022-09-30T08:04:19;9.70;99.90
2639;DHT22;1329;51.384;7.122;2022-09-30T08:06:52;9.80;99.90
2639;DHT22;1329;51.384;7.122;2022-09-30T08:09:23;9.80;99.90
2639;DHT22;1329;51.384;7.122;2022-09-30T08:11:52;9.90;99.90
2639;DHT22;1329;51.384;7.122;2022-09-30T08:14:24;10.00;99.90
2639;DHT22;1329;51.384;7.122;2022-09-30T08:16:52;10.00;99.90
2639;DHT22;1329;51.384;7.122;2022-09-30T08:19:23;10.10;99.90
2639;DHT22;1329;51.384;7.122;2022-09-30T08:21:52;10.20;99.90
2639;DHT22;1329;51.384;7.122;2022-09-30T08:24:21;10.30;99.90
2639;DHT22;1329;51.384;7.122;2022-09-30T08:26:49;10.40;99.90
2639;DHT22;1329;51.384;7.122;2022-09-30T08:29:16;10.50;99.90
2639;DHT22;1329;51.384;7.122;2022-09-30T08:31:44;10.50;99.90
2639;DHT22;1329;51.384;7.122;2022-09-30T08:34:11;10.50;99.90
2639;DHT22;1329;51.384;7.122;2022-09-30T08:36:40;10.60;99.90
2639;DHT22;1329;51.384;7.122;2022-09-30T08:39:09;10.70;99.90
2639;DHT22;1329;51.384;7.122;2022-09-30T08:41:49;10.80;99.90
2639;DHT22;1329;51.384;7.122;2022-09-30T08:44:40;10.80;99.90
2639;DHT22;1329;51.384;7.122;2022-09-30T08:47:21;10.90;99.90
2639;DHT22;1329;51.384;7.122;2022-09-30T08:50:04;11.00;99.90
2639;DHT22;1329;51.384;7.122;2022-09-30T08:52:40;11.10;99.90
2639;DHT22;1329;51.384;7.122;2022-09-30T08:55:18;11.20;99.90
2639;DHT22;1329;51.384;7.122;2022-09-30T08:57:47;11.20;99.90
2639;DHT22;1329;51.384;7.122;2022-09-30T09:00:17;11.30;99.90
2639;DHT22;1329;51.384;7.122;2022-09-30T09:02:49;11.50;99.90
2639;DHT22;1329;51.384;7.122;2022-09-30T09:05:29;11.50;99.90
2639;DHT22;1329;51.384;7.122;2022-09-30T09:08:08;11.60;99.90
2639;DHT22;1329;51.384;7.122;2022-09-30T09:10:45;11.70;99.90
2639;DHT22;1329;51.384;7.122;2022-09-30T09:13:33;11.80;99.90
2639;DHT22;1329;51.384;7.122;2022-09-30T09:16:10;11.90;99.90
2639;DHT22;1329;51.384;7.122;2022-09-30T09:21:43;12.10;99.90
2639;DHT22;1329;51.384;7.122;2022-09-30T09:24:17;12.20;99.90
2639;DHT22;1329;51.384;7.122;2022-09-30T09:26:52;12.30;99.90
2639;DHT22;1329;51.384;7.122;2022-09-30T09:29:39;12.40;99.90
2639;DHT22;1329;51.384;7.122;2022-09-30T09:32:12;12.50;99.90
2639;DHT22;1329;51.384;7.122;2022-09-30T09:34:42;12.60;99.90
2639;DHT22;1329;51.384;7.122;2022-09-30T09:37:16;12.70;99.90
2639;DHT22;1329;51.384;7.122;2022-09-30T09:39:56;12.80;99.90
2639;DHT22;1329;51.384;7.122;2022-09-30T09:42:40;12.90;99.90
2639;DHT22;1329;51.384;7.122;2022-09-30T09:45:22;13.00;99.90
2639;DHT22;1329;51.384;7.122;2022-09-30T09:47:53;13.10;99.90
2639;DHT22;1329;51.384;7.122;2022-09-30T09:50:31;13.10;99.90
2639;DHT22;1329;51.384;7.122;2022-09-30T09:53:23;13.20;99.90
2639;DHT22;1329;51.384;7.122;2022-09-30T09:56:00;13.30;99.90
2639;DHT22;1329;51.384;7.122;2022-09-30T09:58:29;13.40;99.90
2639;DHT22;1329;51.384;7.122;2022-09-30T10:01:09;13.40;99.90
2639;DHT22;1329;51.384;7.122;2022-09-30T10:04:07;13.50;99.90
2639;DHT22;1329;51.384;7.122;2022-09-30T10:06:48;13.50;99.90
2639;DHT22;1329;51.384;7.122;2022-09-30T10:09:25;13.60;99.90
2639;DHT22;1329;51.384;7.122;2022-09-30T10:12:27;13.70;99.90
2639;DHT22;1329;51.384;7.122;2022-09-30T10:15:02;13.70;99.90
2639;DHT22;1329;51.384;7.122;2022-09-30T10:17:52;13.80;99.90
2639;DHT22;1329;51.384;7.122;2022-09-30T10:20:28;13.80;99.90
2639;DHT22;1329;51.384;7.122;2022-09-30T10:23:01;13.80;99.90
2639;DHT22;1329;51.384;7.122;2022-09-30T10:25:33;13.90;99.90
2639;DHT22;1329;51.384;7.122;2022-09-30T10:28:17;13.90;99.90
2639;DHT22;1329;51.384;7.122;2022-09-30T10:30:52;13.90;99.90
2639;DHT22;1329;51.384;7.122;2022-09-30T10:33:27;14.00;99.90
2639;DHT22;1329;51.384;7.122;2022-09-30T10:36:03;14.00;99.90
2639;DHT22;1329;51.384;7.122;2022-09-30T10:38:36;14.10;99.90
2639;DHT22;1329;51.384;7.122;2022-09-30T10:41:05;14.10;99.90
2639;DHT22;1329;51.384;7.122;2022-09-30T10:43:41;14.10;99.90
2639;DHT22;1329;51.384;7.122;2022-09-30T10:46:11;14.20;99.90
2639;DHT22;1329;51.384;7.122;2022-09-30T10:48:49;14.20;99.90
2639;DHT22;1329;51.384;7.122;2022-09-30T10:51:23;14.30;99.90
2639;DHT22;1329;51.384;7.122;2022-09-30T10:53:53;14.30;99.90
2639;DHT22;1329;51.384;7.122;2022-09-30T10:56:34;14.40;99.90
2639;DHT22;1329;51.384;7.122;2022-09-30T10:59:13;14.40;99.90
2639;DHT22;1329;51.384;7.122;2022-09-30T11:01:56;14.50;99.90
2639;DHT22;1329;51.384;7.122;2022-09-30T11:04:33;14.50;99.90
2639;DHT22;1329;51.384;7.122;2022-09-30T11:07:12;14.60;99.90
2639;DHT22;1329;51.384;7.122;2022-09-30T11:09:49;14.60;99.90
2639;DHT22;1329;51.384;7.122;2022-09-30T11:12:25;14.70;99.90
2639;DHT22;1329;51.384;7.122;2022-09-30T11:15:02;14.70;99.90
2639;DHT22;1329;51.384;7.122;2022-09-30T11:17:40;14.80;99.90
2639;DHT22;1329;51.384;7.122;2022-09-30T11:20:18;14.80;99.90
2639;DHT22;1329;51.384;7.122;2022-09-30T11:22:52;14.80;99.90
2639;DHT22;1329;51.384;7.122;2022-09-30T11:25:30;14.90;99.90
2639;DHT22;1329;51.384;7.122;2022-09-30T11:28:17;15.00;99.90
2639;DHT22;1329;51.384;7.122;2022-09-30T11:30:58;15.00;99.90
2639;DHT22;1329;51.384;7.122;2022-09-30T11:33:51;15.10;99.90
2639;DHT22;1329;51.384;7.122;2022-09-30T11:36:30;15.20;99.90
2639;DHT22;1329;51.384;7.122;2022-09-30T11:39:27;15.20;99.90
2639;DHT22;1329;51.384;7.122;2022-09-30T11:42:12;15.40;99.90
2639;DHT22;1329;51.384;7.122;2022-09-30T11:44:44;15.50;99.90
2639;DHT22;1329;51.384;7.122;2022-09-30T11:50:49;15.60;99.90
2639;DHT22;1329;51.384;7.122;2022-09-30T11:53:30;15.70;99.90
2639;DHT22;1329;51.384;7.122;2022-09-30T11:56:11;15.70;99.90
2639;DHT22;1329;51.384;7.122;2022-09-30T11:58:47;15.80;99.90
2639;DHT22;1329;51.384;7.122;2022-09-30T12:01:24;15.80;99.90
2639;DHT22;1329;51.384;7.122;2022-09-30T12:03:58;15.90;99.90
2639;DHT22;1329;51.384;7.122;2022-09-30T12:06:34;15.90;99.90
2639;DHT22;1329;51.384;7.122;2022-09-30T12:09:08;16.00;99.90
2639;DHT22;1329;51.384;7.122;2022-09-30T12:11:46;16.00;99.90
2639;DHT22;1329;51.384;7.122;2022-09-30T12:14:25;16.00;99.90
2639;DHT22;1329;51.384;7.122;2022-09-30T12:16:58;16.00;99.90
2639;DHT22;1329;51.384;7.122;2022-09-30T12:19:33;16.00;99.90
2639;DHT22;1329;51.384;7.122;2022-09-30T12:22:13;16.00;99.90
2639;DHT22;1329;51.384;7.122;2022-09-30T12:24:48;16.00;99.90
2639;DHT22;1329;51.384;7.122;2022-09-30T12:27:19;16.10;99.90
2639;DHT22;1329;51.384;7.122;2022-09-30T12:29:54;16.10;99.90
2639;DHT22;1329;51.384;7.122;2022-09-30T12:33:26;16.10;99.90
2639;DHT22;1329;51.384;7.122;2022-09-30T12:36:15;16.10;99.90
2639;DHT22;1329;51.384;7.122;2022-09-30T12:42:16;16.20;99.90
2639;DHT22;1329;51.384;7.122;2022-09-30T12:45:22;16.20;99.90
2639;DHT22;1329;51.384;7.122;2022-09-30T12:48:22;16.30;99.90
2639;DHT22;1329;51.384;7.122;2022-09-30T12:50:55;16.30;99.90
2639;DHT22;1329;51.384;7.122;2022-09-30T12:53:27;16.40;99.90
2639;DHT22;1329;51.384;7.122;2022-09-30T12:56:04;16.40;99.90
2639;DHT22;1329;51.384;7.122;2022-09-30T12:58:36;16.50;99.90
2639;DHT22;1329;51.384;7.122;2022-09-30T13:01:13;16.60;99.90
2639;DHT22;1329;51.384;7.122;2022-09-30T13:03:48;16.60;99.90
2639;DHT22;1329;51.384;7.122;2022-09-30T13:06:19;16.60;99.90
2639;DHT22;1329;51.384;7.122;2022-09-30T13:09:06;16.70;99.90
2639;DHT22;1329;51.384;7.122;2022-09-30T13:11:46;16.80;99.90
2639;DHT22;1329;51.384;7.122;2022-09-30T13:14:32;16.90;99.90
2639;DHT22;1329;51.384;7.122;2022-09-30T13:17:24;16.90;99.90
2639;DHT22;1329;51.384;7.122;2022-09-30T13:19:56;17.00;99.90
2639;DHT22;1329;51.384;7.122;2022-09-30T13:22:56;17.10;99.90
2639;DHT22;1329;51.384;7.122;2022-09-30T13:25:24;17.20;99.90
2639;DHT22;1329;51.384;7.122;2022-09-30T13:28:27;17.30;99.90
2639;DHT22;1329;51.384;7.122;2022-09-30T13:31:14;17.40;99.90
2639;DHT22;1329;51.384;7.122;2022-09-30T13:34:04;17.40;99.90
2639;DHT22;1329;51.384;7.122;2022-09-30T13:36:55;17.50;99.90
2639;DHT22;1329;51.384;7.122;2022-09-30T13:39:44;17.60;99.90
2639;DHT22;1329;51.384;7.122;2022-09-30T13:42:23;17.70;99.90
2639;DHT22;1329;51.384;7.122;2022-09-30T13:45:01;17.70;99.90
2639;DHT22;1329;51.384;7.122;2022-09-30T13:47:39;17.80;99.90
2639;DHT22;1329;51.384;7.122;2022-09-30T13:50:27;17.80;99.90
2639;DHT22;1329;51.384;7.122;2022-09-30T13:52:59;17.90;99.90
2639;DHT22;1329;51.384;7.122;2022-09-30T13:55:35;17.80;99.90
2639;DHT22;1329;51.384;7.122;2022-09-30T13:58:29;17.80;99.90
2639;DHT22;1329;51.384;7.122;2022-09-30T14:01:16;17.80;99.90
2639;DHT22;1329;51.384;7.122;2022-09-30T14:07:09;17.90;99.90
2639;DHT22;1329;51.384;7.122;2022-09-30T14:09:59;18.00;99.90
2639;DHT22;1329;51.384;7.122;2022-09-30T14:12:51;18.10;99.90
2639;DHT22;1329;51.384;7.122;2022-09-30T14:15:47;18.30;99.90
2639;DHT22;1329;51.384;7.122;2022-09-30T14:19:09;18.40;99.90
2639;DHT22;1329;51.384;7.122;2022-09-30T14:21:48;18.50;99.90
2639;DHT22;1329;51.384;7.122;2022-09-30T14:24:28;18.50;99.90
2639;DHT22;1329;51.384;7.122;2022-09-30T14:27:28;18.60;99.90
2639;DHT22;1329;51.384;7.122;2022-09-30T14:30:12;18.70;99.90
2639;DHT22;1329;51.384;7.122;2022-09-30T14:32:45;18.70;99.90
2639;DHT22;1329;51.384;7.122;2022-09-30T14:35:23;18.70;99.90
2639;DHT22;1329;51.384;7.122;2022-09-30T14:38:03;18.70;99.90
2639;DHT22;1329;51.384;7.122;2022-09-30T14:40:49;18.70;99.90
2639;DHT22;1329;51.384;7.122;2022-09-30T14:43:43;18.70;99.90
2639;DHT22;1329;51.384;7.122;2022-09-30T14:46:21;18.70;99.90
2639;DHT22;1329;51.384;7.122;2022-09-30T14:49:01;18.60;99.90
2639;DHT22;1329;51.384;7.122;2022-09-30T14:51:41;18.60;99.90
2639;DHT22;1329;51.384;7.122;2022-09-30T14:54:27;18.50;99.90
2639;DHT22;1329;51.384;7.122;2022-09-30T14:57:00;18.50;99.90
2639;DHT22;1329;51.384;7.122;2022-09-30T14:59:30;18.50;99.90
2639;DHT22;1329;51.384;7.122;2022-09-30T15:02:14;18.40;99.90
2639;DHT22;1329;51.384;7.122;2022-09-30T15:04:53;18.60;99.90
2639;DHT22;1329;51.384;7.122;2022-09-30T15:07:33;18.60;99.90
2639;DHT22;1329;51.384;7.122;2022-09-30T15:10:32;18.70;99.90
2639;DHT22;1329;51.384;7.122;2022-09-30T15:13:07;18.70;99.90
2639;DHT22;1329;51.384;7.122;2022-09-30T15:15:36;18.80;99.90
2639;DHT22;1329;51.384;7.122;2022-09-30T15:18:32;18.90;99.90
2639;DHT22;1329;51.384;7.122;2022-09-30T15:21:07;18.90;99.90
2639;DHT22;1329;51.384;7.122;2022-09-30T15:23:41;18.90;99.90
2639;DHT22;1329;51.384;7.122;2022-09-30T15:26:12;18.90;99.90
2639;DHT22;1329;51.384;7.122;2022-09-30T15:28:39;18.90;99.90
2639;DHT22;1329;51.384;7.122;2022-09-30T15:31:17;18.90;99.90
2639;DHT22;1329;51.384;7.122;2022-09-30T15:33:48;18.80;99.90
2639;DHT22;1329;51.384;7.122;2022-09-30T15:36:17;18.80;99.90
2639;DHT22;1329;51.384;7.122;2022-09-30T15:38:49;18.70;99.90
2639;DHT22;1329;51.384;7.122;2022-09-30T15:41:17;18.60;99.90
2639;DHT22;1329;51.384;7.122;2022-09-30T15:43:46;18.60;99.90
2639;DHT22;1329;51.384;7.122;2022-09-30T15:46:37;18.50;99.90
2639;DHT22;1329;51.384;7.122;2022-09-30T15:49:33;18.50;99.90
2639;DHT22;1329;51.384;7.122;2022-09-30T15:52:30;18.50;99.90
2639;DHT22;1329;51.384;7.122;2022-09-30T15:55:31;18.50;99.90
2639;DHT22;1329;51.384;7.122;2022-09-30T15:58:02;18.50;99.90
2639;DHT22;1329;51.384;7.122;2022-09-30T16:00:35;18.40;99.90
2639;DHT22;1329;51.384;7.122;2022-09-30T16:03:23;18.50;99.90
2639;DHT22;1329;51.384;7.122;2022-09-30T16:06:04;18.40;99.90
2639;DHT22;1329;51.384;7.122;2022-09-30T16:08:40;18.50;99.90
2639;DHT22;1329;51.384;7.122;2022-09-30T16:11:17;18.50;99.90
2639;DHT22;1329;51.384;7.122;2022-09-30T16:13:47;18.50;99.90
2639;DHT22;1329;51.384;7.122;2022-09-30T16:16:20;18.50;99.90
2639;DHT22;1329;51.384;7.122;2022-09-30T16:18:54;18.50;99.90
2639;DHT22;1329;51.384;7.122;2022-09-30T16:21:41;18.50;99.90
2639;DHT22;1329;51.384;7.122;2022-09-30T16:24:43;18.40;99.90
2639;DHT22;1329;51.384;7.122;2022-09-30T16:27:29;18.40;99.60
2639;DHT22;1329;51.384;7.122;2022-09-30T16:29:59;18.30;99.90
2639;DHT22;1329;51.384;7.122;2022-09-30T16:32:30;18.20;99.90
2639;DHT22;1329;51.384;7.122;2022-09-30T16:35:00;18.10;99.90
2639;DHT22;1329;51.384;7.122;2022-09-30T16:37:29;18.10;99.90
2639;DHT22;1329;51.384;7.122;2022-09-30T16:40:00;18.00;99.90
2639;DHT22;1329;51.384;7.122;2022-09-30T16:42:36;17.90;99.90
2639;DHT22;1329;51.384;7.122;2022-09-30T16:45:04;17.80;99.90
2639;DHT22;1329;51.384;7.122;2022-09-30T16:47:32;17.70;99.90
2639;DHT22;1329;51.384;7.122;2022-09-30T16:50:00;17.60;99.90
2639;DHT22;1329;51.384;7.122;2022-09-30T16:52:29;17.50;99.90
2639;DHT22;1329;51.384;7.122;2022-09-30T16:54:56;17.40;99.90
2639;DHT22;1329;51.384;7.122;2022-09-30T16:57:24;17.30;99.90
2639;DHT22;1329;51.384;7.122;2022-09-30T16:59:51;17.20;99.90
2639;DHT22;1329;51.384;7.122;2022-09-30T17:02:18;17.10;99.90
2639;DHT22;1329;51.384;7.122;2022-09-30T17:04:46;17.00;99.90
2639;DHT22;1329;51.384;7.122;2022-09-30T17:07:13;16.80;99.90
2639;DHT22;1329;51.384;7.122;2022-09-30T17:09:43;16.70;99.90
2639;DHT22;1329;51.384;7.122;2022-09-30T17:12:10;16.50;99.90
2639;DHT22;1329;51.384;7.122;2022-09-30T17:14:39;16.40;99.90
2639;DHT22;1329;51.384;7.122;2022-09-30T17:17:08;16.20;99.90
2639;DHT22;1329;51.384;7.122;2022-09-30T17:19:36;16.10;99.90